createdAt,value
2023-01-15T00:01:09.706Z,0.03
2023-01-15T00:04:08.641Z,0.04
2023-01-15T00:21:33.135Z,0.03
2023-01-15T00:23:41.657Z,0.04
2023-01-15T00:43:50.441Z,0.03
2023-01-15T00:51:33.423Z,0.04
2023-01-15T01:15:54.108Z,0.03
2023-01-15T01:20:02.303Z,0.04
2023-01-15T01:27:36.535Z,0.03
2023-01-15T01:29:39.701Z,0.04
2023-01-15T01:35:09.153Z,0.03
2023-01-15T01:57:36.340Z,0.02
2023-01-15T01:59:58.186Z,0.03
2023-01-15T02:39:11.148Z,0.02
2023-01-15T02:44:01.553Z,0.03
2023-01-15T02:46:05.753Z,0.02
2023-01-15T02:56:11.291Z,0.03
2023-01-15T03:04:25.181Z,0.02
2023-01-15T03:14:11.771Z,0
2023-01-15T03:16:34.309Z,0.02
2023-01-15T04:00:52.589Z,0.03
2023-01-15T04:17:50.088Z,0.02
2023-01-15T04:27:33.190Z,0.03
2023-01-15T05:14:48.455Z,0.02
2023-01-15T05:22:08.594Z,0.03
2023-01-15T06:01:42.559Z,0.02
2023-01-15T06:03:44.689Z,0.03
2023-01-15T06:31:32.012Z,0.04
2023-01-15T06:35:59.745Z,0.05
2023-01-15T06:38:55.153Z,0.06
2023-01-15T06:41:36.412Z,0.07
2023-01-15T06:44:03.535Z,0.09
2023-01-15T06:46:16.549Z,0.12
2023-01-15T06:48:15.513Z,0.15
2023-01-15T06:51:02.885Z,0.22
2023-01-15T06:53:36.089Z,0.32
2023-01-15T06:55:54.969Z,0.46
2023-01-15T06:58:00.268Z,0.62
2023-01-15T07:00:53.620Z,0.99
2023-01-15T07:03:33.270Z,1.55
2023-01-15T07:05:58.534Z,2.14
2023-01-15T07:08:09.767Z,2.75
2023-01-15T07:10:07.039Z,3.49
2023-01-15T07:12:52.771Z,4.87
2023-01-15T07:15:24.283Z,6.08
2023-01-15T07:17:41.675Z,7.22
2023-01-15T07:19:45.118Z,8.14
2023-01-15T07:22:37.029Z,9.57
2023-01-15T07:25:14.722Z,10.68
2023-01-15T07:27:38.415Z,12.41
2023-01-15T07:29:47.978Z,13.87
2023-01-15T07:32:46.003Z,15.73
2023-01-15T07:35:30.233Z,18.83
2023-01-15T07:37:59.921Z,21.41
2023-01-15T07:40:15.634Z,24.24
2023-01-15T07:42:17.420Z,26.07
2023-01-15T07:45:07.663Z,29.94
2023-01-15T07:47:43.115Z,34.54
2023-01-15T07:50:04.859Z,38.33
2023-01-15T07:52:12.735Z,42.34
2023-01-15T07:55:09.035Z,45.44
2023-01-15T07:57:51.283Z,48.38
2023-01-15T08:00:19.292Z,54.46
2023-01-15T08:02:33.360Z,60.7
2023-01-15T08:04:33.124Z,63.46
2023-01-15T08:07:21.529Z,69.26
2023-01-15T08:09:55.771Z,69.88
2023-01-15T08:14:21.968Z,69.58
2023-01-15T08:17:16.566Z,68.44
2023-01-15T08:19:56.971Z,72.14
2023-01-15T08:22:23.196Z,78.02
2023-01-15T08:24:35.523Z,82.16
2023-01-15T08:26:33.466Z,80.3
2023-01-15T08:29:19.924Z,80.46
2023-01-15T08:31:52.535Z,89.2
2023-01-15T08:34:10.832Z,90.76
2023-01-15T08:36:15.003Z,88.96
2023-01-15T08:39:07.465Z,91.56
2023-01-15T08:41:46.045Z,84.6
2023-01-15T08:44:10.534Z,88.28
2023-01-15T08:46:21.045Z,99.96
2023-01-15T08:49:19.941Z,108.12
2023-01-15T08:52:04.791Z,113.76
2023-01-15T08:54:35.255Z,126.56
2023-01-15T08:56:51.821Z,117.92
2023-01-15T08:58:54.288Z,112.52
2023-01-15T09:01:45.247Z,109.12
2023-01-15T09:04:22.160Z,124.64
2023-01-15T09:06:44.757Z,146
2023-01-15T09:08:53.230Z,163.8
2023-01-15T09:11:50.405Z,189
2023-01-15T09:14:56.226Z,212
2023-01-15T09:17:02.365Z,215.6
2023-01-15T09:19:17.041Z,160.16
2023-01-15T09:21:17.820Z,167.8
2023-01-15T09:24:06.964Z,124.96
2023-01-15T09:26:41.961Z,116.4
2023-01-15T09:29:03.010Z,141.44
2023-01-15T09:31:09.468Z,151.04
2023-01-15T09:34:04.697Z,198.2
2023-01-15T09:36:45.934Z,300.2
2023-01-15T09:39:13.088Z,305.8
2023-01-15T09:41:26.054Z,337.7
2023-01-15T09:43:25.170Z,275.2
2023-01-15T09:46:12.562Z,215.9
2023-01-15T09:48:26.722Z,224.8
2023-01-15T09:50:26.776Z,212.8
2023-01-15T09:53:15.178Z,280.8
2023-01-15T09:55:49.927Z,280.4
2023-01-15T09:58:10.008Z,387.3
2023-01-15T10:00:16.139Z,394.4
2023-01-15T10:03:10.983Z,370.8
2023-01-15T10:05:51.615Z,392.4
2023-01-15T10:08:18.069Z,388.4
2023-01-15T10:10:30.555Z,446.8
2023-01-15T10:12:28.917Z,454.5
2023-01-15T10:15:15.613Z,426.2
2023-01-15T10:17:48.767Z,385.4
2023-01-15T10:20:07.168Z,324.8
2023-01-15T10:22:10.889Z,334.8
2023-01-15T10:25:03.712Z,364.1
2023-01-15T10:27:42.659Z,367.2
2023-01-15T10:30:07.366Z,419
2023-01-15T10:32:17.920Z,468.9
2023-01-15T10:35:17.067Z,458.8
2023-01-15T10:38:02.115Z,490.4
2023-01-15T10:40:32.966Z,531.3
2023-01-15T10:42:49.558Z,507.6
2023-01-15T10:44:52.343Z,438.8
2023-01-15T10:47:43.502Z,400.9
2023-01-15T10:50:20.489Z,366.5
2023-01-15T10:52:44.773Z,353.7
2023-01-15T10:54:52.462Z,344.1
2023-01-15T10:57:52.551Z,349.6
2023-01-15T11:00:33.057Z,363.2
2023-01-15T11:03:02.264Z,369.2
2023-01-15T11:05:17.205Z,444.8
2023-01-15T11:07:18.273Z,514
2023-01-15T11:10:07.695Z,559.3
2023-01-15T11:12:42.973Z,619.2
2023-01-15T11:15:03.654Z,715.2
2023-01-15T11:17:10.786Z,732.1
2023-01-15T11:20:06.427Z,771.2
2023-01-15T11:22:47.730Z,893.4
2023-01-15T11:25:15.188Z,1049.6
2023-01-15T11:27:28.422Z,1165.4
2023-01-15T11:29:27.528Z,1184.3
2023-01-15T11:32:15.221Z,1133.1
2023-01-15T11:34:48.752Z,1131.8
2023-01-15T11:37:08.129Z,1121.6
2023-01-15T11:39:13.515Z,1142.4
2023-01-15T11:42:07.389Z,1177.2
2023-01-15T11:44:47.041Z,1221.4
2023-01-15T11:47:12.501Z,1281.2
2023-01-15T11:49:23.974Z,1188.1
2023-01-15T11:51:21.333Z,1153.6
2023-01-15T11:54:07.063Z,1080.9
2023-01-15T11:56:38.904Z,1160
2023-01-15T11:58:56.575Z,1151
2023-01-15T12:01:00.105Z,1058.2
2023-01-15T12:03:52.228Z,1025.6
2023-01-15T12:06:29.599Z,1153.6
2023-01-15T12:08:53.319Z,1273.9
2023-01-15T12:11:14.170Z,2048
2023-01-15T12:14:01.481Z,2058
2023-01-15T12:16:45.056Z,1200.6
2023-01-15T12:19:14.747Z,2127
2023-01-15T12:21:30.571Z,1495.6
2023-01-15T12:23:32.185Z,1955
2023-01-15T12:26:22.131Z,2142
2023-01-15T12:28:58.164Z,2155
2023-01-15T12:31:20.068Z,1297.2
2023-01-15T12:33:27.734Z,1266.8
2023-01-15T12:36:24.099Z,995.5
2023-01-15T12:39:06.225Z,1003.2
2023-01-15T12:41:34.192Z,1041.6
2023-01-15T12:43:48.002Z,752.6
2023-01-15T12:45:47.912Z,748.1
2023-01-15T12:48:36.191Z,574.5
2023-01-15T12:51:10.234Z,599
2023-01-15T12:53:30.593Z,698.5
2023-01-15T12:55:36.495Z,1289.6
2023-01-15T12:58:30.231Z,1147.5
2023-01-15T13:01:10.813Z,1107.5
2023-01-15T13:03:36.815Z,1336.9
2023-01-15T13:05:48.899Z,791
2023-01-15T13:07:47.024Z,671
2023-01-15T13:10:33.517Z,624
2023-01-15T13:13:05.989Z,787.5
2023-01-15T13:15:24.036Z,666.2
2023-01-15T13:17:28.263Z,752.6
2023-01-15T13:20:20.927Z,908.1
2023-01-15T13:22:59.370Z,634.5
2023-01-15T13:25:25.949Z,835.8
2023-01-15T13:27:34.208Z,834.2
2023-01-15T13:30:32.925Z,743.3
2023-01-15T13:33:17.719Z,883.8
2023-01-15T13:35:48.327Z,769.2
2023-01-15T13:38:04.797Z,674.2
2023-01-15T13:40:07.343Z,1401.6
2023-01-15T13:42:58.265Z,800.3
2023-01-15T13:45:35.036Z,709.7
2023-01-15T13:47:57.620Z,790.4
2023-01-15T13:50:05.895Z,672
2023-01-15T13:53:02.867Z,787.2
2023-01-15T13:55:45.664Z,719.3
2023-01-15T13:58:14.573Z,570.5
2023-01-15T14:00:29.296Z,542.8
2023-01-15T14:02:29.916Z,758
2023-01-15T14:05:19.007Z,652.6
2023-01-15T14:07:54.022Z,1113.2
2023-01-15T14:10:14.875Z,677.4
2023-01-15T14:12:21.814Z,603.5
2023-01-15T14:15:17.091Z,652.6
2023-01-15T14:17:58.235Z,528.6
2023-01-15T14:20:25.181Z,428.1
2023-01-15T14:22:38.259Z,640.4
2023-01-15T14:24:37.159Z,482.5
2023-01-15T14:27:24.461Z,394.5
2023-01-15T14:29:57.711Z,260.4
2023-01-15T14:32:16.840Z,257.2
2023-01-15T14:34:21.839Z,184.8
2023-01-15T14:37:15.456Z,271.6
2023-01-15T14:39:54.946Z,171.3
2023-01-15T14:42:19.852Z,195.7
2023-01-15T14:44:31.185Z,265.6
2023-01-15T14:46:28.395Z,106.24
2023-01-15T14:49:13.956Z,125.32
2023-01-15T14:51:45.421Z,95.6
2023-01-15T14:54:02.900Z,157.16
2023-01-15T14:56:06.216Z,130.44
2023-01-15T14:58:57.871Z,277.2
2023-01-15T15:01:35.710Z,139.76
2023-01-15T15:03:59.038Z,92.84
2023-01-15T15:06:08.432Z,115.96
2023-01-15T15:09:06.419Z,110.72
2023-01-15T15:11:50.241Z,97.36
2023-01-15T15:14:19.887Z,123.2
2023-01-15T15:16:35.419Z,72.38
2023-01-15T15:18:37.172Z,56.44
2023-01-15T15:21:26.838Z,68.66
2023-01-15T15:24:02.617Z,71.56
2023-01-15T15:26:24.466Z,68.24
2023-01-15T15:28:32.112Z,73.48
2023-01-15T15:31:28.120Z,80.22
2023-01-15T15:34:09.873Z,36.08
2023-01-15T15:36:39.276Z,30.17
2023-01-15T15:38:51.625Z,27.27
2023-01-15T15:40:51.515Z,26.17
2023-01-15T15:43:39.673Z,16.43
2023-01-15T15:46:14.407Z,9.23
2023-01-15T15:48:33.643Z,7.89
2023-01-15T15:50:39.647Z,6.26
2023-01-15T15:53:35.967Z,5.42
2023-01-15T15:56:14.193Z,5.09
2023-01-15T15:58:40.411Z,4.99
2023-01-15T16:00:52.596Z,2.8
2023-01-15T16:02:50.808Z,1.65
2023-01-15T16:05:37.037Z,1.21
2023-01-15T16:08:09.419Z,0.99
2023-01-15T16:10:27.655Z,0.78
2023-01-15T16:12:31.965Z,0.75
2023-01-15T16:15:24.669Z,0.45
2023-01-15T16:18:03.226Z,0.4
2023-01-15T16:20:27.510Z,0.55
2023-01-15T16:22:37.962Z,0.52
2023-01-15T16:25:36.349Z,0.31
2023-01-15T16:28:21.005Z,0.23
2023-01-15T16:30:51.713Z,0.16
2023-01-15T16:33:08.187Z,0.11
2023-01-15T16:38:01.528Z,0.09
2023-01-15T16:40:38.302Z,0.08
2023-01-15T16:43:00.912Z,0.07
2023-01-15T16:48:06.690Z,0.08
2023-01-15T16:50:49.626Z,0.09
2023-01-15T16:53:18.370Z,0.06
2023-01-15T16:55:33.194Z,0.05
2023-01-15T16:57:33.879Z,0.06
2023-01-15T17:05:18.871Z,0.07
2023-01-15T17:15:29.561Z,0.06
2023-01-15T17:34:57.875Z,0.05
2023-01-15T17:39:34.349Z,0.06
2023-01-15T17:41:31.560Z,0.05
2023-01-15T17:44:17.226Z,0.06
2023-01-15T17:46:48.636Z,0.05
2023-01-15T17:51:09.242Z,0.04
2023-01-15T17:54:01.030Z,0.03
2023-01-15T17:56:38.692Z,0.04
2023-01-15T18:09:23.295Z,0.05
2023-01-15T18:21:28.404Z,0.04
2023-01-15T18:26:32.383Z,0.03
2023-01-15T18:29:14.425Z,0.04
2023-01-15T18:31:42.542Z,0.05
2023-01-15T18:38:44.590Z,0.04
2023-01-15T18:48:39.446Z,0.05
2023-01-15T18:51:19.692Z,0.06
2023-01-15T18:55:58.068Z,0.04
2023-01-15T18:57:56.159Z,0.05
2023-01-15T19:00:42.220Z,0.04
2023-01-15T19:03:14.751Z,0.05
2023-01-15T19:15:33.236Z,0.06
2023-01-15T19:20:42.656Z,0.05
2023-01-15T19:23:27.389Z,0.04
2023-01-15T19:28:14.643Z,0.03
2023-01-15T19:30:17.128Z,0.04
2023-01-15T19:35:44.997Z,0.05
2023-01-15T19:40:16.403Z,0.06
2023-01-15T19:43:13.623Z,0.05
2023-01-15T20:05:27.269Z,0.06
2023-01-15T20:10:35.601Z,0.05
2023-01-15T20:14:47.550Z,0.04
2023-01-15T20:21:48.991Z,0.05
2023-01-15T20:24:39.155Z,0.04
2023-01-15T20:29:32.066Z,0.05
2023-01-15T20:34:32.843Z,0.04
2023-01-15T20:37:13.382Z,0.05
2023-01-15T20:39:39.798Z,0.04
2023-01-15T20:41:52.278Z,0.05
2023-01-15T20:43:50.143Z,0.04
2023-01-15T20:46:36.827Z,0.05
2023-01-15T20:49:09.286Z,0.04
2023-01-15T20:51:27.899Z,0.03
2023-01-15T20:59:04.193Z,0.05
2023-01-15T21:09:23.606Z,0.04
2023-01-15T21:11:54.388Z,0.05
2023-01-15T21:14:11.033Z,0.04
2023-01-15T21:16:13.744Z,0.03
2023-01-15T21:19:04.944Z,0.04
2023-01-15T21:24:05.022Z,0.03
2023-01-15T21:29:10.997Z,0.02
2023-01-15T21:31:54.360Z,0.03
2023-01-15T21:34:23.444Z,0.04
2023-01-15T21:36:38.050Z,0.03
2023-01-15T21:38:39.083Z,0.02
2023-01-15T21:41:28.543Z,0.03
2023-01-15T22:08:30.036Z,0.02
2023-01-15T22:10:35.531Z,0.03
2023-01-15T22:16:09.103Z,0.02
2023-01-15T22:28:00.951Z,0.01
2023-01-15T22:30:18.618Z,0.02
2023-01-15T22:42:26.175Z,0.01
2023-01-15T22:45:24.500Z,0.02
2023-01-15T22:57:46.687Z,0.03
2023-01-15T23:04:53.134Z,0.02
2023-01-15T23:10:32.409Z,0.03
2023-01-15T23:15:14.419Z,0.02
2023-01-15T23:48:59.125Z,0.03
